createdAt,value
2022-11-04T00:03:59.861Z,8.87
2022-11-04T00:09:02.769Z,9.63
2022-11-04T00:14:09.348Z,10.83
2022-11-04T00:19:12.496Z,9.97
2022-11-04T00:24:45.313Z,9.30
2022-11-04T00:29:49.788Z,7.53
2022-11-04T00:34:53.177Z,8.47
2022-11-04T00:39:56.762Z,11.23
2022-11-04T00:45:01.351Z,9.03
2022-11-04T00:50:04.507Z,8.57
2022-11-04T00:55:08.619Z,8.57
2022-11-04T01:00:15.003Z,9.37
2022-11-04T01:05:18.419Z,7.60
2022-11-04T01:10:21.513Z,8.43
2022-11-04T01:15:26.009Z,8.80
2022-11-04T01:20:29.189Z,6.77
2022-11-04T01:25:32.270Z,7.87
2022-11-04T01:30:38.968Z,7.37
2022-11-04T01:35:42.990Z,11.47
2022-11-04T01:40:46.100Z,8.03
2022-11-04T01:45:54.958Z,4.73
2022-11-04T01:50:58.523Z,9.20
2022-11-04T01:56:12.291Z,7.70
2022-11-04T02:01:17.413Z,5.87
2022-11-04T02:06:22.669Z,7.03
2022-11-04T02:11:43.268Z,6.90
2022-11-04T02:16:50.991Z,10.07
2022-11-04T02:22:23.064Z,6.83
2022-11-04T02:27:49.260Z,9.67
2022-11-04T02:33:22.343Z,7.50
2022-11-04T02:38:35.340Z,6.60
2022-11-04T02:43:51.052Z,6.30
2022-11-04T02:49:01.746Z,6.03
2022-11-04T02:54:10.797Z,5.50
2022-11-04T02:59:20.863Z,7.17
2022-11-04T03:04:30.426Z,8.50
2022-11-04T03:09:35.929Z,6.53
2022-11-04T03:14:44.266Z,7.37
2022-11-04T03:19:54.418Z,6.87
2022-11-04T03:24:59.245Z,9.20
2022-11-04T03:30:06.295Z,9.67
2022-11-04T03:35:12.524Z,7.77
2022-11-04T03:40:16.805Z,8.23
2022-11-04T03:45:20.512Z,8.93
2022-11-04T03:50:30.345Z,9.60
2022-11-04T03:55:44.605Z,7.33
2022-11-04T04:00:53.739Z,8.70
2022-11-04T04:06:05.182Z,11.10
2022-11-04T04:11:14.614Z,10.40
2022-11-04T04:16:24.737Z,10.90
2022-11-04T04:21:36.386Z,13.00
2022-11-04T04:26:59.868Z,7.13
2022-11-04T04:32:05.034Z,10.83
2022-11-04T04:37:13.516Z,8.20
2022-11-04T04:42:34.537Z,10.37
2022-11-04T04:47:44.412Z,9.47
2022-11-04T04:52:51.657Z,8.03
2022-11-04T04:57:54.663Z,7.07
2022-11-04T05:02:57.691Z,8.27
2022-11-04T05:08:08.169Z,8.07
2022-11-04T05:13:30.229Z,8.63
2022-11-04T05:18:33.524Z,7.47
2022-11-04T05:23:38.095Z,8.17
2022-11-04T05:28:41.110Z,11.37
2022-11-04T05:33:44.164Z,10.20
2022-11-04T05:38:52.019Z,11.43
2022-11-04T05:43:56.013Z,8.70
2022-11-04T05:48:59.342Z,9.10
2022-11-04T05:54:03.897Z,11.13
2022-11-04T05:59:06.987Z,10.25
2022-11-04T06:04:15.809Z,8.67
2022-11-04T06:09:20.362Z,8.87
2022-11-04T06:14:25.003Z,9.43
2022-11-04T06:19:28.200Z,8.03
2022-11-04T06:24:32.557Z,10.18
2022-11-04T06:29:36.697Z,7.47
2022-11-04T06:34:39.994Z,9.90
2022-11-04T06:39:44.419Z,10.15
2022-11-04T06:44:47.449Z,9.40
2022-11-04T06:49:50.572Z,9.23
2022-11-04T06:54:55.074Z,7.13
2022-11-04T06:59:58.500Z,6.30
2022-11-04T07:05:01.503Z,7.47
2022-11-04T07:10:06.863Z,8.47
2022-11-04T07:15:10.779Z,8.20
2022-11-04T07:20:14.237Z,9.43
2022-11-04T07:25:18.933Z,8.60
2022-11-04T07:30:22.147Z,6.87
2022-11-04T07:35:25.375Z,6.87
2022-11-04T07:40:29.904Z,8.50
2022-11-04T07:45:32.902Z,5.90
2022-11-04T07:50:36.565Z,8.77
2022-11-04T07:55:43.608Z,6.10
2022-11-04T08:00:47.068Z,5.07
2022-11-04T08:05:56.515Z,5.47
2022-11-04T08:11:03.751Z,7.28
2022-11-04T08:16:09.719Z,8.05
2022-11-04T08:21:13.185Z,5.40
2022-11-04T08:26:19.669Z,6.57
2022-11-04T08:31:25.724Z,5.23
2022-11-04T08:36:31.417Z,5.13
2022-11-04T08:41:37.364Z,4.65
2022-11-04T08:46:41.153Z,3.55
2022-11-04T08:51:47.171Z,3.83
2022-11-04T08:56:51.611Z,3.38
2022-11-04T09:01:55.030Z,3.80
2022-11-04T09:06:59.251Z,5.03
2022-11-04T09:12:03.791Z,4.13
2022-11-04T09:17:07.005Z,2.53
2022-11-04T09:22:10.207Z,7.72
2022-11-04T09:27:14.858Z,2.60
2022-11-04T09:32:18.001Z,1.67
2022-11-04T09:37:21.227Z,3.63
2022-11-04T09:42:41.282Z,2.10
2022-11-04T09:47:46.065Z,2.90
2022-11-04T09:52:55.562Z,1.45
2022-11-04T09:58:00.449Z,1.50
2022-11-04T10:03:18.043Z,3.65
2022-11-04T10:08:49.335Z,3.13
2022-11-04T10:14:10.681Z,1.75
2022-11-04T10:19:28.704Z,2.40
2022-11-04T10:24:48.864Z,2.90
2022-11-04T10:29:56.338Z,1.50
2022-11-04T10:35:03.231Z,3.17
2022-11-04T10:40:19.362Z,7.47
2022-11-04T10:45:32.073Z,1.40
2022-11-04T10:50:38.714Z,2.10
2022-11-04T10:55:49.296Z,3.17
2022-11-04T11:00:54.819Z,1.67
2022-11-04T11:06:22.690Z,1.60
2022-11-04T11:11:48.193Z,2.17
2022-11-04T11:16:52.636Z,2.50
2022-11-04T11:21:57.174Z,1.77
2022-11-04T11:27:02.328Z,1.75
2022-11-04T11:32:08.078Z,3.27
2022-11-04T11:37:24.504Z,1.70
2022-11-04T11:42:27.881Z,3.35
2022-11-04T11:47:42.217Z,1.60
2022-11-04T11:52:46.582Z,2.63
2022-11-04T12:09:23.338Z,3.50
2022-11-04T12:14:44.821Z,2.80
2022-11-04T12:20:10.159Z,2.28
2022-11-04T12:25:24.084Z,2.38
2022-11-04T12:30:33.864Z,3.35
2022-11-04T12:35:58.293Z,2.92
2022-11-04T12:46:41.767Z,3.00
2022-11-04T12:51:54.823Z,3.40
2022-11-04T12:57:19.695Z,2.40
2022-11-04T13:02:27.592Z,2.90
2022-11-04T13:07:36.120Z,3.10
2022-11-04T13:12:42.817Z,2.28
2022-11-04T13:17:48.664Z,5.35
2022-11-04T13:22:58.970Z,3.72
2022-11-04T13:28:05.480Z,5.72
2022-11-04T13:33:17.134Z,3.00
2022-11-04T13:38:24.296Z,5.65
2022-11-04T13:43:42.865Z,4.40
2022-11-04T13:48:55.965Z,2.45
2022-11-04T13:54:00.530Z,2.72
2022-11-04T13:59:08.699Z,4.07
2022-11-04T14:04:38.832Z,5.13
2022-11-04T14:10:01.820Z,4.70
2022-11-04T14:15:12.400Z,4.03
2022-11-04T14:20:25.903Z,3.15
2022-11-04T14:25:36.274Z,4.28
2022-11-04T14:30:47.988Z,6.65
2022-11-04T14:35:52.487Z,1.98
2022-11-04T14:41:17.348Z,5.38
2022-11-04T14:46:23.724Z,4.75
2022-11-04T14:51:30.325Z,5.43
2022-11-04T14:56:35.016Z,2.90
2022-11-04T15:01:40.033Z,6.57
2022-11-04T15:06:55.783Z,4.03
2022-11-04T15:12:25.456Z,3.87
2022-11-04T15:17:31.309Z,1.73
2022-11-04T15:22:34.533Z,3.03
2022-11-04T15:27:38.959Z,2.20
2022-11-04T15:32:42.048Z,2.57
2022-11-04T15:37:45.970Z,3.53
2022-11-04T15:42:58.906Z,8.83
2022-11-04T15:48:28.155Z,2.77
2022-11-04T15:53:31.886Z,6.47
2022-11-04T15:58:36.681Z,5.73
2022-11-04T16:03:39.757Z,3.77
2022-11-04T16:08:43.099Z,6.13
2022-11-04T16:13:48.151Z,6.43
2022-11-04T16:18:54.244Z,6.80
2022-11-04T16:24:02.095Z,5.63
2022-11-04T16:29:10.271Z,5.33
2022-11-04T16:34:14.851Z,7.13
2022-11-04T16:39:17.763Z,8.47
2022-11-04T16:44:24.351Z,9.63
2022-11-04T16:49:27.363Z,9.90
2022-11-04T16:54:30.782Z,5.87
2022-11-04T16:59:35.533Z,8.50
2022-11-04T17:04:38.580Z,11.43
2022-11-04T17:09:41.936Z,12.13
2022-11-04T17:14:46.597Z,9.50
2022-11-04T17:19:49.674Z,9.73
2022-11-04T17:24:52.820Z,11.13
2022-11-04T17:29:57.251Z,9.00
2022-11-04T17:35:00.265Z,8.70
2022-11-04T17:40:03.530Z,7.43
2022-11-04T17:45:08.970Z,8.30
2022-11-04T17:50:15.028Z,11.57
2022-11-04T17:55:21.860Z,9.80
2022-11-04T18:00:29.723Z,8.90
2022-11-04T18:05:32.940Z,6.97
2022-11-04T18:10:36.134Z,8.17
2022-11-04T18:15:40.532Z,10.50
2022-11-04T18:20:43.513Z,8.93
2022-11-04T18:25:50.544Z,7.63
2022-11-04T18:30:55.317Z,7.40
2022-11-04T18:36:03.282Z,8.10
2022-11-04T18:41:06.659Z,11.37
2022-11-04T18:46:13.160Z,10.83
2022-11-04T18:51:16.235Z,9.03
2022-11-04T18:56:22.696Z,13.50
2022-11-04T19:01:29.745Z,13.97
2022-11-04T19:06:35.347Z,12.00
2022-11-04T19:11:41.384Z,9.80
2022-11-04T19:16:45.690Z,10.93
2022-11-04T19:21:49.747Z,9.97
2022-11-04T19:26:52.721Z,8.27
2022-11-04T19:31:57.489Z,6.90
2022-11-04T19:37:00.467Z,9.73
2022-11-04T19:42:23.548Z,8.53
2022-11-04T19:47:28.075Z,9.70
2022-11-04T19:52:34.589Z,9.13
2022-11-04T19:57:40.863Z,8.10
2022-11-04T20:02:45.283Z,7.90
2022-11-04T20:07:48.497Z,7.97
2022-11-04T20:13:09.425Z,10.13
2022-11-04T20:18:14.040Z,7.73
2022-11-04T20:23:17.048Z,7.40
2022-11-04T20:28:20.052Z,7.87
2022-11-04T20:33:24.317Z,7.30
2022-11-04T20:38:27.392Z,7.83
2022-11-04T20:43:33.291Z,7.70
2022-11-04T20:48:38.189Z,7.83
2022-11-04T20:53:42.049Z,13.13
2022-11-04T20:58:48.535Z,6.23
2022-11-04T21:03:53.538Z,10.70
2022-11-04T21:08:57.350Z,6.83
2022-11-04T21:14:00.713Z,8.37
2022-11-04T21:19:05.869Z,10.53
2022-11-04T21:24:08.899Z,8.80
2022-11-04T21:29:14.559Z,6.33
2022-11-04T21:34:19.104Z,9.30
2022-11-04T21:39:22.979Z,7.27
2022-11-04T21:44:26.161Z,8.17
2022-11-04T21:49:30.658Z,7.33
2022-11-04T21:54:33.905Z,10.00
2022-11-04T21:59:37.021Z,8.87
2022-11-04T22:04:41.319Z,9.73
2022-11-04T22:09:44.467Z,7.50
2022-11-04T22:14:47.314Z,9.63
2022-11-04T22:19:51.835Z,10.07
2022-11-04T22:25:04.006Z,11.30
2022-11-04T22:30:10.775Z,10.63
2022-11-04T22:35:15.229Z,7.80
2022-11-04T22:40:18.385Z,7.57
2022-11-04T22:45:21.359Z,8.70
2022-11-04T22:50:25.678Z,8.60
2022-11-04T22:55:28.898Z,9.37
2022-11-04T23:00:32.233Z,8.03
2022-11-04T23:05:36.784Z,8.97
2022-11-04T23:10:57.186Z,12.47
2022-11-04T23:16:18.306Z,8.23
2022-11-04T23:21:42.572Z,9.40
2022-11-04T23:26:46.841Z,9.60
2022-11-04T23:31:50.856Z,11.77
2022-11-04T23:37:13.607Z,7.17
2022-11-04T23:42:19.108Z,7.63
2022-11-04T23:47:38.755Z,13.67
2022-11-04T23:53:00.613Z,8.00
2022-11-04T23:58:21.132Z,11.13
